Time;durP1;ratioP1;P1;durP2;ratioP2;P2;SDS_P1;SDS_P2;PMS_P1;PMS_P2;Temp;Humidity;BMP_temperature;BMP_pressure;BME280_temperature;BME280_humidity;BME280_pressure;Samples;Min_cycle;Max_cycle;Signal;HPM_P1;HPM_P2
2023/10/23 00:02:22;;;;;;;11.40;7.00;;;;;;;8.62;100.00;98898.70;273186;1267;22536;-83
2023/10/23 00:08:24;;;;;;;10.60;7.00;;;;;;;8.49;100.00;98904.02;270442;1270;23320;-83
2023/10/23 00:14:26;;;;;;;11.70;6.80;;;;;;;8.37;100.00;98912.29;270597;1269;22538;-83
2023/10/23 00:20:45;;;;;;;14.50;6.70;;;;;;;8.23;100.00;98919.33;273244;1266;22434;-83
2023/10/23 00:26:47;;;;;;;12.30;7.40;;;;;;;8.03;100.00;98920.88;273727;1268;22195;-83
2023/10/23 00:32:49;;;;;;;12.20;6.40;;;;;;;7.86;100.00;98925.91;273649;1269;23268;-84
2023/10/23 00:38:51;;;;;;;6.80;4.30;;;;;;;7.82;100.00;98920.91;273637;1269;22355;-83
2023/10/23 00:44:53;;;;;;;10.30;5.20;;;;;;;7.78;100.00;98925.96;272734;1267;22467;-82
2023/10/23 00:50:57;;;;;;;11.40;4.70;;;;;;;7.82;100.00;98932.44;273197;1267;22559;-83
2023/10/23 00:56:59;;;;;;;6.40;3.80;;;;;;;7.87;100.00;98928.17;271871;1267;22580;-83
2023/10/23 01:03:01;;;;;;;9.60;4.80;;;;;;;7.87;100.00;98929.73;272742;1267;22306;-83
2023/10/23 01:09:03;;;;;;;8.70;5.30;;;;;;;7.90;100.00;98939.77;273241;1269;22644;-83
2023/10/23 01:15:06;;;;;;;10.50;6.50;;;;;;;8.00;100.00;98939.59;273712;1267;22486;-83
2023/10/23 01:21:31;;;;;;;11.10;7.70;;;;;;;8.11;100.00;98943.52;271817;1267;22545;-83
2023/10/23 01:27:33;;;;;;;10.40;6.30;;;;;;;8.17;100.00;98941.63;272433;1270;22551;-83
2023/10/23 01:33:38;;;;;;;9.90;6.50;;;;;;;8.26;100.00;98944.08;270627;1269;22577;-84
2023/10/23 01:39:40;;;;;;;11.00;5.80;;;;;;;8.24;100.00;98946.40;270939;1269;24239;-83
2023/10/23 01:46:11;;;;;;;10.40;6.30;;;;;;;8.24;100.00;98948.81;272271;1267;22192;-83
2023/10/23 01:52:15;;;;;;;12.20;5.90;;;;;;;8.21;100.00;98947.25;272949;1270;22411;-84
2023/10/23 01:58:35;;;;;;;8.20;6.10;;;;;;;8.21;100.00;98950.67;273616;1267;22383;-83
2023/10/23 02:04:39;;;;;;;9.60;5.60;;;;;;;8.28;100.00;98949.14;273704;1267;22320;-83
2023/10/23 02:10:43;;;;;;;7.80;5.50;;;;;;;8.31;100.00;98950.20;273630;1267;22390;-84
2023/10/23 02:16:46;;;;;;;7.50;5.00;;;;;;;8.29;100.00;98959.59;273903;1274;23299;-84
2023/10/23 02:22:48;;;;;;;10.90;5.80;;;;;;;8.38;100.00;98962.33;273640;1267;22390;-83
2023/10/23 02:28:50;;;;;;;8.40;5.20;;;;;;;8.44;100.00;98965.64;273633;1267;22437;-84
2023/10/23 02:35:18;;;;;;;7.30;5.60;;;;;;;8.46;100.00;98966.13;273281;1267;22377;-84
2023/10/23 02:41:19;;;;;;;9.50;6.20;;;;;;;8.46;100.00;98961.55;273704;1267;22450;-84
2023/10/23 02:47:24;;;;;;;6.80;4.60;;;;;;;8.42;100.00;98954.15;272899;1267;22531;-84
2023/10/23 02:53:29;;;;;;;6.00;4.80;;;;;;;8.42;100.00;98958.65;273629;1267;22194;-84
2023/10/23 02:59:32;;;;;;;6.40;4.80;;;;;;;8.36;100.00;98960.98;272846;1267;22521;-84
2023/10/23 03:05:34;;;;;;;9.50;5.60;;;;;;;8.27;100.00;98965.38;272620;1267;25412;-81
2023/10/23 03:11:36;;;;;;;11.40;5.40;;;;;;;8.13;100.00;98959.85;271255;1270;22560;-83
2023/10/23 03:17:39;;;;;;;7.80;5.50;;;;;;;8.02;100.00;98962.98;270685;1267;22171;-83
2023/10/23 03:23:41;;;;;;;9.70;6.60;;;;;;;7.96;100.00;98967.30;271344;1267;23798;-83
2023/10/23 03:29:43;;;;;;;7.70;5.00;;;;;;;7.84;100.00;98965.65;271927;1267;22361;-83
2023/10/23 03:35:45;;;;;;;8.70;6.10;;;;;;;7.74;100.00;98967.30;273491;1267;22432;-83
2023/10/23 03:41:47;;;;;;;10.60;5.40;;;;;;;7.60;100.00;98966.75;272836;1267;22656;-84
2023/10/23 03:47:49;;;;;;;5.80;4.70;;;;;;;7.55;100.00;98965.23;272795;1267;22547;-83
2023/10/23 03:53:51;;;;;;;8.00;4.70;;;;;;;7.46;100.00;98968.77;271229;1267;25268;-85
2023/10/23 03:59:59;;;;;;;8.40;4.40;;;;;;;7.41;100.00;98967.50;271206;1267;22546;-84
2023/10/23 04:06:04;;;;;;;14.70;6.20;;;;;;;7.33;100.00;98962.77;272679;1267;22482;-84
2023/10/23 04:12:07;;;;;;;10.40;5.60;;;;;;;7.22;100.00;98961.05;271511;1267;23246;-84
2023/10/23 04:18:09;;;;;;;7.50;5.40;;;;;;;7.14;100.00;98966.05;272787;1267;22676;-83
2023/10/23 04:24:11;;;;;;;8.50;4.50;;;;;;;7.10;100.00;98970.33;272244;1267;22521;-84
2023/10/23 04:30:13;;;;;;;8.90;4.50;;;;;;;7.07;100.00;98973.47;271876;1267;23290;-84
2023/10/23 04:36:14;;;;;;;11.80;5.90;;;;;;;7.02;100.00;98976.34;271391;1267;22574;-82
2023/10/23 04:42:32;;;;;;;9.90;5.10;;;;;;;6.97;100.00;98983.92;271183;1267;22561;-84
2023/10/23 04:48:34;;;;;;;7.10;5.80;;;;;;;6.92;100.00;98989.16;272477;1267;23346;-84
2023/10/23 04:54:41;;;;;;;13.20;5.80;;;;;;;6.88;100.00;98997.14;272755;1267;22208;-84
2023/10/23 05:00:45;;;;;;;6.60;5.50;;;;;;;6.82;100.00;99014.98;271335;1267;23163;-83
2023/10/23 05:06:46;;;;;;;13.20;6.80;;;;;;;6.84;100.00;99024.65;273977;1267;22527;-83
2023/10/23 05:12:49;;;;;;;8.80;5.90;;;;;;;6.85;100.00;99031.81;271871;1260;22566;-84
2023/10/23 05:18:52;;;;;;;10.00;5.60;;;;;;;6.83;100.00;99032.64;273426;1267;22376;-84
2023/10/23 05:25:17;;;;;;;11.20;6.30;;;;;;;6.84;100.00;99040.04;273801;1267;22189;-84
2023/10/23 05:31:20;;;;;;;8.90;6.40;;;;;;;6.91;100.00;99052.34;273736;1266;24297;-84
2023/10/23 05:37:27;;;;;;;10.00;6.40;;;;;;;6.96;100.00;99060.82;273877;1273;23577;-84
2023/10/23 05:43:31;;;;;;;13.10;6.70;;;;;;;6.97;100.00;99066.05;273503;1266;22365;-84
2023/10/23 05:49:34;;;;;;;16.00;8.20;;;;;;;7.00;100.00;99073.81;273510;1267;22420;-84
2023/10/23 05:55:36;;;;;;;13.20;8.10;;;;;;;7.10;100.00;99073.52;272056;1267;527777;-84
2023/10/23 06:02:03;;;;;;;11.40;7.20;;;;;;;7.11;100.00;99077.52;273525;1267;22422;-83
2023/10/23 06:08:06;;;;;;;11.10;6.90;;;;;;;7.24;100.00;99084.95;273771;1267;22180;-83
2023/10/23 06:14:36;;;;;;;13.90;9.90;;;;;;;7.51;100.00;99090.37;273153;1267;23748;-85
2023/10/23 06:20:49;;;;;;;;;;;;;;;;;;;;;
2023/10/23 06:27:05;;;;;;;16.10;9.70;;;;;;;7.79;100.00;99096.74;272912;1267;22389;-84
2023/10/23 06:33:07;;;;;;;17.10;9.40;;;;;;;7.85;100.00;99097.27;273724;1267;22378;-85
2023/10/23 06:39:21;;;;;;;12.30;8.10;;;;;;;7.93;100.00;99096.28;273733;1267;22932;-84
2023/10/23 06:45:25;;;;;;;13.70;8.50;;;;;;;8.02;100.00;99093.52;273809;1266;22178;-85
2023/10/23 06:51:27;;;;;;;14.60;8.50;;;;;;;8.16;100.00;99092.52;273308;1263;22498;-84
2023/10/23 06:57:29;;;;;;;12.10;7.60;;;;;;;8.32;100.00;99094.38;273764;1267;22298;-84
2023/10/23 07:03:32;;;;;;;15.00;8.30;;;;;;;8.46;100.00;99100.04;272706;1266;22198;-84
2023/10/23 07:09:35;;;;;;;11.50;7.80;;;;;;;8.60;100.00;99109.55;273564;1266;22347;-84
2023/10/23 07:15:39;;;;;;;16.20;7.60;;;;;;;8.83;100.00;99112.44;273136;1267;22540;-85
2023/10/23 07:21:41;;;;;;;11.90;6.70;;;;;;;9.10;100.00;99108.03;271250;1257;23131;-84
2023/10/23 07:27:54;;;;;;;16.20;8.70;;;;;;;9.32;100.00;99105.79;274000;1269;22348;-83
2023/10/23 07:33:57;;;;;;;17.00;10.10;;;;;;;9.51;100.00;99107.59;272637;1267;22370;-84
2023/10/23 07:40:04;;;;;;;14.70;9.40;;;;;;;9.67;100.00;99121.45;272493;1266;22202;-84
2023/10/23 07:46:08;;;;;;;13.90;10.90;;;;;;;9.88;100.00;99119.20;273638;1267;22398;-85
2023/10/23 07:52:10;;;;;;;17.50;10.40;;;;;;;10.25;100.00;99112.99;273488;1267;22383;-83
2023/10/23 07:58:11;;;;;;;10.20;6.10;;;;;;;10.81;100.00;99110.60;273394;1267;22579;-84
2023/10/23 08:04:14;;;;;;;10.90;5.90;;;;;;;11.40;100.00;99114.30;271209;1267;22518;-85
2023/10/23 08:10:17;;;;;;;8.70;3.40;;;;;;;12.03;100.00;99123.39;271680;1267;22575;-83
2023/10/23 08:16:19;;;;;;;5.50;2.90;;;;;;;12.31;100.00;99124.14;271435;1267;22557;-83
2023/10/23 08:22:50;;;;;;;8.70;2.90;;;;;;;12.35;100.00;99125.98;272275;1267;22842;-82
2023/10/23 08:28:52;;;;;;;6.70;2.60;;;;;;;12.39;100.00;99125.45;273666;1267;22362;-83
2023/10/23 08:34:54;;;;;;;4.40;2.80;;;;;;;12.47;100.00;99125.80;273099;1267;22543;-83
2023/10/23 08:40:56;;;;;;;7.40;3.10;;;;;;;12.51;100.00;99124.04;272206;1267;22557;-83
2023/10/23 08:46:58;;;;;;;6.70;3.10;;;;;;;12.59;100.00;99115.69;271507;1267;22535;-83
2023/10/23 08:53:07;;;;;;;8.70;3.00;;;;;;;12.63;100.00;99121.44;273251;1267;22738;-83
2023/10/23 08:59:10;;;;;;;6.60;3.10;;;;;;;12.72;100.00;99135.36;273265;1266;22310;-83
2023/10/23 09:05:14;;;;;;;7.50;3.10;;;;;;;12.96;100.00;99139.88;273935;1269;22192;-83
2023/10/23 09:11:16;;;;;;;16.30;6.00;;;;;;;13.19;100.00;99143.98;273579;1267;22403;-84
2023/10/23 09:17:18;;;;;;;24.60;9.70;;;;;;;13.50;100.00;99149.86;273138;1267;22576;-83
2023/10/23 09:23:23;;;;;;;20.40;10.20;;;;;;;14.17;100.00;99154.77;271849;1267;23287;-84
2023/10/23 09:29:27;;;;;;;22.00;8.60;;;;;;;14.87;100.00;99157.08;273696;1267;23191;-84
2023/10/23 09:35:32;;;;;;;15.20;6.80;;;;;;;15.73;100.00;99157.34;273819;1269;22180;-83
2023/10/23 09:41:35;;;;;;;10.20;3.40;;;;;;;16.75;100.00;99156.05;273413;1267;22209;-83
2023/10/23 09:47:37;;;;;;;4.50;2.20;;;;;;;17.75;100.00;99147.64;273741;1266;22343;-84
2023/10/23 09:53:40;;;;;;;7.90;2.80;;;;;;;18.38;100.00;99139.74;273493;1267;22376;-81
2023/10/23 09:59:56;;;;;;;10.10;3.50;;;;;;;18.89;100.00;99132.85;273701;1266;23411;-84
2023/10/23 10:06:03;;;;;;;8.50;3.20;;;;;;;19.19;100.00;99121.91;273157;1267;22292;-83
2023/10/23 10:12:07;;;;;;;8.40;2.70;;;;;;;19.56;100.00;99110.88;273807;1267;22487;-83
2023/10/23 10:18:09;;;;;;;5.70;2.00;;;;;;;19.89;100.00;99109.84;273797;1265;22426;-84
2023/10/23 10:24:14;;;;;;;11.30;2.40;;;;;;;19.73;100.00;99112.61;271850;1267;22808;-83
2023/10/23 10:30:46;;;;;;;5.90;1.70;;;;;;;19.21;100.00;99108.80;270621;1267;22579;-84
2023/10/23 10:36:49;;;;;;;4.10;1.60;;;;;;;18.81;100.00;99102.27;272859;1267;22392;-84
2023/10/23 10:42:51;;;;;;;6.70;1.50;;;;;;;18.69;99.38;99098.31;273451;1266;22425;-84
2023/10/23 10:48:54;;;;;;;5.50;1.80;;;;;;;18.39;99.04;99094.19;273450;1267;22435;-83
2023/10/23 10:54:59;;;;;;;5.20;1.50;;;;;;;18.07;98.03;99083.21;273746;1267;23538;-84
2023/10/23 11:01:02;;;;;;;7.60;2.40;;;;;;;17.81;98.29;99082.31;273692;1263;22403;-83
2023/10/23 11:07:06;;;;;;;4.90;2.00;;;;;;;17.62;96.98;99083.97;273012;1267;22535;-83
2023/10/23 11:13:13;;;;;;;7.10;2.40;;;;;;;17.64;97.02;99075.63;272611;1267;22423;-83
2023/10/23 11:19:14;;;;;;;7.60;2.20;;;;;;;17.69;96.49;99069.14;273216;1267;22454;-82
2023/10/23 11:25:17;;;;;;;4.50;1.90;;;;;;;17.63;95.28;99060.38;273808;1267;22290;-82
2023/10/23 11:31:21;;;;;;;7.20;2.30;;;;;;;17.36;93.79;99058.25;273902;1267;22212;-81
2023/10/23 11:37:24;;;;;;;5.10;2.30;;;;;;;17.18;93.93;99058.02;273571;1266;22519;-83
2023/10/23 11:43:25;;;;;;;6.70;1.90;;;;;;;17.12;93.78;99063.18;270699;1251;25538;-82
2023/10/23 11:49:27;;;;;;;5.60;1.80;;;;;;;16.94;93.12;99059.78;271125;1267;22739;-83
2023/10/23 11:55:29;;;;;;;7.90;1.90;;;;;;;16.63;92.10;99062.47;270520;1267;22324;-84
2023/10/23 12:01:31;;;;;;;5.80;2.20;;;;;;;16.46;91.56;99069.55;271253;1267;22980;-81
2023/10/23 12:07:33;;;;;;;3.50;1.60;;;;;;;16.42;90.67;99067.45;273143;1260;22162;-81
2023/10/23 12:13:36;;;;;;;6.70;1.80;;;;;;;16.44;90.25;99068.14;273475;1267;22372;-83
2023/10/23 12:19:37;;;;;;;5.20;2.10;;;;;;;16.46;89.96;99063.39;273515;1259;22416;-81
2023/10/23 12:25:39;;;;;;;4.40;1.30;;;;;;;16.46;89.55;99062.76;273890;1263;22181;-82
2023/10/23 12:31:53;;;;;;;;;;;;;;;;;;;;;
2023/10/23 12:37:54;;;;;;;5.20;1.70;;;;;;;16.43;89.13;99050.31;273674;1267;22350;-82
2023/10/23 12:43:56;;;;;;;3.60;1.20;;;;;;;16.34;89.17;99048.89;273774;1257;22421;-81
2023/10/23 12:49:59;;;;;;;9.10;1.80;;;;;;;16.31;88.76;99042.23;274035;1270;22196;-82
2023/10/23 12:56:01;;;;;;;6.20;1.90;;;;;;;16.34;87.85;99039.34;273745;1263;22293;-82
2023/10/23 13:02:04;;;;;;;5.80;1.80;;;;;;;16.34;87.09;99036.81;272108;1267;22546;-81
2023/10/23 13:08:05;;;;;;;3.30;1.50;;;;;;;16.25;86.28;99029.59;271913;1267;23504;-82
2023/10/23 13:14:07;;;;;;;3.40;1.30;;;;;;;16.03;86.29;99024.93;271373;1267;22633;-82
2023/10/23 13:20:10;;;;;;;4.00;1.40;;;;;;;15.85;86.84;99019.27;270634;1267;25220;-83
2023/10/23 13:26:37;;;;;;;5.10;1.50;;;;;;;15.75;87.12;99017.71;271600;1267;22297;-82
2023/10/23 13:32:40;;;;;;;9.70;2.10;;;;;;;15.70;87.08;99008.38;273731;1267;23273;-83
2023/10/23 13:38:41;;;;;;;3.60;1.30;;;;;;;15.66;87.23;99006.20;273855;1268;22377;-83
2023/10/23 13:44:49;;;;;;;6.50;2.20;;;;;;;15.62;86.72;99007.73;273088;1267;22609;-83
2023/10/23 13:50:59;;;;;;;;;;;;;;;15.52;86.49;99007.42;271563;1266;22508;-83
2023/10/23 13:57:00;;;;;;;9.90;3.60;;;;;;;15.47;86.55;99005.41;271068;1259;24196;-82
2023/10/23 14:03:04;;;;;;;7.10;2.10;;;;;;;15.41;86.58;98998.14;271766;1265;22317;-82
2023/10/23 14:09:07;;;;;;;5.00;1.50;;;;;;;15.36;86.74;98991.38;270908;1267;22526;-82
2023/10/23 14:15:10;;;;;;;6.50;1.80;;;;;;;15.27;87.15;98988.38;271977;1263;23159;-81
2023/10/23 14:21:12;;;;;;;5.90;1.90;;;;;;;15.17;87.34;98986.09;273334;1267;22547;-82
2023/10/23 14:27:13;;;;;;;4.90;1.90;;;;;;;15.05;87.11;98987.05;271650;1267;22558;-82
2023/10/23 14:33:15;;;;;;;4.00;1.60;;;;;;;14.93;87.19;98990.98;271906;1267;22513;-82
2023/10/23 14:39:19;;;;;;;8.60;3.00;;;;;;;14.84;87.52;98998.98;271034;1263;22563;-84
2023/10/23 14:45:21;;;;;;;5.40;2.00;;;;;;;14.78;88.02;99001.15;273315;1267;22201;-82
2023/10/23 14:51:24;;;;;;;21.20;8.50;;;;;;;14.73;88.60;98995.27;273852;1267;22207;-82
2023/10/23 14:57:26;;;;;;;11.00;4.00;;;;;;;14.65;90.09;98989.88;273752;1267;22480;-81
2023/10/23 15:03:28;;;;;;;10.50;3.50;;;;;;;14.59;91.08;98992.98;273660;1259;22365;-82
2023/10/23 15:09:30;;;;;;;8.00;2.20;;;;;;;14.49;91.49;98990.35;273596;1267;22218;-84
2023/10/23 15:15:33;;;;;;;7.30;2.00;;;;;;;14.33;92.35;98994.02;270671;1267;22535;-82
2023/10/23 15:21:35;;;;;;;10.40;2.60;;;;;;;14.14;92.81;99001.80;271617;1267;22604;-82
2023/10/23 15:27:39;;;;;;;11.50;2.40;;;;;;;13.83;92.92;99004.92;271997;1267;22629;-82
2023/10/23 15:33:43;;;;;;;5.80;2.30;;;;;;;13.54;93.73;99004.80;270902;1267;22532;-82
2023/10/23 15:39:46;;;;;;;12.00;3.30;;;;;;;13.26;94.72;99007.24;270471;1259;23152;-82
2023/10/23 15:45:51;;;;;;;13.50;5.20;;;;;;;12.98;95.45;99007.73;272510;1265;22119;-83
2023/10/23 15:51:53;;;;;;;9.60;3.30;;;;;;;12.74;96.13;99008.93;273628;1267;22201;-82
2023/10/23 15:57:55;;;;;;;11.00;4.30;;;;;;;12.48;96.49;99009.95;271963;1267;22333;-82
2023/10/23 16:03:57;;;;;;;16.00;5.00;;;;;;;12.31;97.08;99012.63;271745;1267;23257;-82
2023/10/23 16:09:59;;;;;;;14.40;4.90;;;;;;;12.13;97.49;99009.40;273320;1267;23789;-82
2023/10/23 16:16:07;;;;;;;11.00;4.10;;;;;;;11.97;97.98;99007.27;273413;1269;22477;-82
2023/10/23 16:22:10;;;;;;;9.30;4.90;;;;;;;11.85;98.44;99004.23;273577;1267;22470;-84
2023/10/23 16:28:14;;;;;;;8.80;4.30;;;;;;;11.70;98.73;99001.79;273733;1267;22410;-83
2023/10/23 16:34:17;;;;;;;8.80;3.70;;;;;;;11.46;98.93;98994.61;273718;1269;23309;-83
2023/10/23 16:40:18;;;;;;;9.20;3.00;;;;;;;11.21;99.64;98991.36;273640;1267;22381;-82
2023/10/23 16:46:20;;;;;;;9.30;3.40;;;;;;;11.07;100.00;98997.11;273719;1268;23186;-82
2023/10/23 16:52:24;;;;;;;14.30;5.70;;;;;;;10.94;100.00;98993.23;272957;1267;22774;-82
2023/10/23 16:58:26;;;;;;;11.90;6.30;;;;;;;10.79;100.00;98990.50;272706;1267;22477;-82
2023/10/23 17:04:32;;;;;;;8.20;4.30;;;;;;;10.66;100.00;98986.61;273730;1267;22259;-82
2023/10/23 17:10:34;;;;;;;9.90;4.20;;;;;;;10.49;100.00;98985.66;273844;1267;22391;-81
2023/10/23 17:16:36;;;;;;;12.90;5.60;;;;;;;10.34;100.00;98988.52;273579;1267;22285;-82
2023/10/23 17:22:38;;;;;;;14.40;6.20;;;;;;;10.22;100.00;98990.48;273929;1267;23029;-82
2023/10/23 17:28:40;;;;;;;11.80;5.30;;;;;;;10.13;100.00;98986.69;273796;1267;22432;-82
2023/10/23 17:34:42;;;;;;;17.70;7.20;;;;;;;10.06;100.00;98989.23;272653;1269;23357;-82
2023/10/23 17:40:44;;;;;;;20.20;7.80;;;;;;;10.01;100.00;98991.04;271529;1267;25369;-80
2023/10/23 17:46:46;;;;;;;17.00;8.50;;;;;;;9.88;100.00;98997.66;271787;1267;22176;-82
2023/10/23 17:52:48;;;;;;;10.20;6.50;;;;;;;9.71;100.00;99003.43;273832;1267;22394;-81
2023/10/23 17:58:55;;;;;;;16.20;8.50;;;;;;;9.58;100.00;99004.41;273679;1267;122847;-82
2023/10/23 18:05:15;;;;;;;17.60;8.40;;;;;;;9.46;100.00;99004.77;273958;1267;22164;-82
2023/10/23 18:11:16;;;;;;;16.80;7.00;;;;;;;9.36;100.00;99001.97;273749;1268;23586;-81
2023/10/23 18:17:18;;;;;;;15.00;7.50;;;;;;;9.24;100.00;98999.27;271135;1267;22489;-81
2023/10/23 18:23:21;;;;;;;19.60;8.40;;;;;;;9.12;100.00;99001.02;273783;1267;22407;-81
2023/10/23 18:29:23;;;;;;;25.30;10.30;;;;;;;9.00;100.00;98993.34;273711;1267;22413;-81
2023/10/23 18:35:25;;;;;;;14.60;9.20;;;;;;;8.92;100.00;98984.60;273766;1267;22377;-82
2023/10/23 18:41:27;;;;;;;15.90;7.90;;;;;;;8.86;100.00;98979.82;273663;1267;23003;-81
2023/10/23 18:47:30;;;;;;;20.00;10.80;;;;;;;8.77;100.00;98972.48;270846;1269;22598;-81
2023/10/23 18:53:31;;;;;;;25.30;12.10;;;;;;;8.64;100.00;98962.98;273051;1267;22559;-82
2023/10/23 18:59:33;;;;;;;25.50;14.30;;;;;;;8.56;100.00;98962.52;271961;1267;22378;-82
2023/10/23 19:05:37;;;;;;;28.90;14.10;;;;;;;8.52;100.00;98963.67;266174;1267;10001907;-82
2023/10/23 19:11:43;;;;;;;22.40;12.90;;;;;;;8.44;100.00;98960.34;273685;1267;23827;-82
2023/10/23 19:17:45;;;;;;;30.20;14.90;;;;;;;8.32;100.00;98955.44;273680;1267;22191;-82
2023/10/23 19:23:52;;;;;;;24.30;11.80;;;;;;;8.21;100.00;98955.52;273739;1267;22239;-82
2023/10/23 19:29:54;;;;;;;19.20;11.20;;;;;;;8.17;100.00;98958.98;273579;1267;22424;-82
2023/10/23 19:35:56;;;;;;;20.10;11.40;;;;;;;8.10;100.00;98956.60;273752;1267;22466;-82
2023/10/23 19:42:00;;;;;;;25.70;13.30;;;;;;;7.99;100.00;98951.55;273640;1267;22393;-82
2023/10/23 19:48:02;;;;;;;21.10;12.50;;;;;;;7.89;100.00;98949.72;273597;1267;22377;-83
2023/10/23 19:54:05;;;;;;;20.90;10.30;;;;;;;7.85;100.00;98940.90;273685;1260;22307;-82
2023/10/23 20:00:09;;;;;;;18.50;12.80;;;;;;;7.76;100.00;98942.74;273739;1267;23695;-84
2023/10/23 20:06:12;;;;;;;23.30;12.80;;;;;;;7.65;100.00;98944.91;272531;1270;22521;-82
2023/10/23 20:12:14;;;;;;;25.00;13.60;;;;;;;7.62;100.00;98949.61;273304;1267;22202;-82
2023/10/23 20:18:16;;;;;;;22.20;10.60;;;;;;;7.57;100.00;98948.48;273738;1267;23418;-82
2023/10/23 20:24:17;;;;;;;21.40;12.20;;;;;;;7.46;100.00;98946.29;273873;1270;22857;-82
2023/10/23 20:30:22;;;;;;;18.20;10.80;;;;;;;7.35;100.00;98954.05;273722;1267;22197;-83
2023/10/23 20:36:24;;;;;;;25.40;12.20;;;;;;;7.27;100.00;98963.50;273736;1267;22412;-82
2023/10/23 20:42:37;;;;;;;23.00;15.00;;;;;;;7.18;100.00;98957.16;273722;1267;22547;-81
2023/10/23 20:48:39;;;;;;;27.80;12.20;;;;;;;7.05;100.00;98955.13;273737;1267;23766;-82
2023/10/23 20:55:01;;;;;;;30.10;17.70;;;;;;;6.88;100.00;98947.30;274018;1269;22194;-81
2023/10/23 21:01:05;;;;;;;30.90;15.80;;;;;;;6.75;100.00;98945.52;273318;1267;22453;-82
2023/10/23 21:07:08;;;;;;;26.80;16.90;;;;;;;6.63;100.00;98948.60;273684;1267;22186;-82
2023/10/23 21:13:10;;;;;;;37.80;19.10;;;;;;;6.58;100.00;98947.02;273475;1267;22353;-82
2023/10/23 21:19:12;;;;;;;33.50;17.40;;;;;;;6.54;100.00;98934.23;273614;1266;22493;-82
2023/10/23 21:25:14;;;;;;;35.10;18.40;;;;;;;6.47;100.00;98937.48;273813;1261;23501;-82
2023/10/23 21:31:16;;;;;;;23.70;14.10;;;;;;;6.42;100.00;98938.05;272977;1267;22198;-82
2023/10/23 21:37:18;;;;;;;25.40;14.60;;;;;;;6.43;100.00;98942.42;273718;1267;22377;-82
2023/10/23 21:43:20;;;;;;;30.90;16.90;;;;;;;6.48;100.00;98936.96;273603;1267;23504;-81
2023/10/23 21:49:22;;;;;;;29.90;17.50;;;;;;;6.47;100.00;98930.94;273762;1267;22320;-82
2023/10/23 21:55:24;;;;;;;28.30;15.80;;;;;;;6.34;100.00;98924.46;273772;1267;22399;-82
2023/10/23 22:01:28;;;;;;;21.60;13.10;;;;;;;6.23;100.00;98916.65;273711;1267;22403;-82
2023/10/23 22:07:34;;;;;;;28.50;15.30;;;;;;;6.09;100.00;98904.06;273940;1267;22152;-82
2023/10/23 22:13:39;;;;;;;27.70;14.60;;;;;;;5.98;100.00;98898.96;273775;1267;22367;-82
2023/10/23 22:19:41;;;;;;;27.80;15.10;;;;;;;5.97;100.00;98898.46;273774;1267;22408;-82
2023/10/23 22:25:48;;;;;;;29.10;16.20;;;;;;;5.90;100.00;98889.89;273767;1256;22409;-82
2023/10/23 22:31:50;;;;;;;25.90;15.00;;;;;;;5.79;100.00;98884.02;273678;1267;22413;-83
2023/10/23 22:37:52;;;;;;;24.70;15.50;;;;;;;5.81;100.00;98878.92;273754;1267;22357;-83
2023/10/23 22:43:54;;;;;;;21.80;13.70;;;;;;;5.79;100.00;98872.94;272864;1267;22397;-82
2023/10/23 22:49:56;;;;;;;23.20;15.20;;;;;;;5.74;100.00;98860.70;273770;1267;22269;-83
2023/10/23 22:55:59;;;;;;;24.00;15.00;;;;;;;5.73;100.00;98866.72;272266;1267;22690;-82
2023/10/23 23:02:01;;;;;;;31.70;17.60;;;;;;;5.78;100.00;98873.46;272203;1256;24184;-82
2023/10/23 23:08:03;;;;;;;26.30;15.90;;;;;;;5.66;100.00;98869.86;271497;1267;22391;-81
2023/10/23 23:14:05;;;;;;;29.60;15.90;;;;;;;5.58;100.00;98857.52;272724;1267;22365;-82
2023/10/23 23:20:12;;;;;;;28.00;16.00;;;;;;;5.50;100.00;98861.19;273686;1267;22457;-82
2023/10/23 23:26:14;;;;;;;26.30;15.70;;;;;;;5.48;100.00;98858.55;273765;1267;22291;-81
2023/10/23 23:32:19;;;;;;;23.90;15.00;;;;;;;5.40;100.00;98861.36;273754;1267;22299;-81
2023/10/23 23:38:22;;;;;;;26.30;15.20;;;;;;;5.32;100.00;98857.33;273787;1266;22244;-82
2023/10/23 23:44:23;;;;;;;28.40;16.20;;;;;;;5.17;100.00;98846.95;273790;1264;22203;-82
2023/10/23 23:50:26;;;;;;;35.30;17.60;;;;;;;5.02;100.00;98831.43;273724;1253;23647;-83
2023/10/23 23:56:27;;;;;;;22.90;15.20;;;;;;;4.92;100.00;98829.38;273744;1267;22410;-82
